sensor_id;sensor_type;location;lat;lon;timestamp;temperature;humidity
21353;DHT22;10834;52.268;6.770;2022-11-27T00:02:42;6.00;99.90
21353;DHT22;10834;52.268;6.770;2022-11-27T00:05:28;6.00;99.90
21353;DHT22;10834;52.268;6.770;2022-11-27T00:08:15;6.00;99.90
21353;DHT22;10834;52.268;6.770;2022-11-27T00:11:09;6.00;99.90
21353;DHT22;10834;52.268;6.770;2022-11-27T00:13:56;6.00;99.90
21353;DHT22;10834;52.268;6.770;2022-11-27T00:16:42;6.00;99.90
21353;DHT22;10834;52.268;6.770;2022-11-27T00:19:28;5.90;99.90
21353;DHT22;10834;52.268;6.770;2022-11-27T00:22:14;5.90;99.90
21353;DHT22;10834;52.268;6.770;2022-11-27T00:25:01;5.90;99.90
21353;DHT22;10834;52.268;6.770;2022-11-27T00:27:47;5.80;99.90
21353;DHT22;10834;52.268;6.770;2022-11-27T00:30:33;5.80;99.90
21353;DHT22;10834;52.268;6.770;2022-11-27T00:33:19;5.80;99.90
21353;DHT22;10834;52.268;6.770;2022-11-27T00:36:05;5.80;99.90
21353;DHT22;10834;52.268;6.770;2022-11-27T00:38:51;5.70;99.90
21353;DHT22;10834;52.268;6.770;2022-11-27T00:41:38;5.70;99.90
21353;DHT22;10834;52.268;6.770;2022-11-27T00:44:24;5.70;99.90
21353;DHT22;10834;52.268;6.770;2022-11-27T00:47:10;5.70;99.90
21353;DHT22;10834;52.268;6.770;2022-11-27T00:49:56;5.70;99.90
21353;DHT22;10834;52.268;6.770;2022-11-27T00:52:42;5.60;99.90
21353;DHT22;10834;52.268;6.770;2022-11-27T00:55:28;5.60;99.90
21353;DHT22;10834;52.268;6.770;2022-11-27T00:58:14;5.60;99.90
21353;DHT22;10834;52.268;6.770;2022-11-27T01:01:03;5.60;99.90
21353;DHT22;10834;52.268;6.770;2022-11-27T01:03:50;5.50;99.90
21353;DHT22;10834;52.268;6.770;2022-11-27T01:06:36;5.50;99.90
21353;DHT22;10834;52.268;6.770;2022-11-27T01:09:22;5.50;99.90
21353;DHT22;10834;52.268;6.770;2022-11-27T01:12:08;5.50;99.90
21353;DHT22;10834;52.268;6.770;2022-11-27T01:14:54;5.50;99.90
21353;DHT22;10834;52.268;6.770;2022-11-27T01:17:41;5.50;99.90
21353;DHT22;10834;52.268;6.770;2022-11-27T01:20:26;5.40;99.90
21353;DHT22;10834;52.268;6.770;2022-11-27T01:23:12;5.40;99.90
21353;DHT22;10834;52.268;6.770;2022-11-27T01:26:00;5.40;99.90
21353;DHT22;10834;52.268;6.770;2022-11-27T01:28:49;5.40;99.90
21353;DHT22;10834;52.268;6.770;2022-11-27T01:31:36;5.40;99.90
21353;DHT22;10834;52.268;6.770;2022-11-27T01:34:22;5.40;99.90
21353;DHT22;10834;52.268;6.770;2022-11-27T01:37:08;5.30;99.90
21353;DHT22;10834;52.268;6.770;2022-11-27T01:39:54;5.30;99.90
21353;DHT22;10834;52.268;6.770;2022-11-27T01:42:40;5.30;99.90
21353;DHT22;10834;52.268;6.770;2022-11-27T01:45:26;5.30;99.90
21353;DHT22;10834;52.268;6.770;2022-11-27T01:48:12;5.30;99.90
21353;DHT22;10834;52.268;6.770;2022-11-27T01:50:59;5.30;99.90
21353;DHT22;10834;52.268;6.770;2022-11-27T01:53:45;5.20;99.90
21353;DHT22;10834;52.268;6.770;2022-11-27T01:56:31;5.20;99.90
21353;DHT22;10834;52.268;6.770;2022-11-27T01:59:17;5.20;99.90
21353;DHT22;10834;52.268;6.770;2022-11-27T02:02:04;5.20;99.90
21353;DHT22;10834;52.268;6.770;2022-11-27T02:04:50;5.20;99.90
21353;DHT22;10834;52.268;6.770;2022-11-27T02:07:37;5.20;99.90
21353;DHT22;10834;52.268;6.770;2022-11-27T02:13:51;5.20;99.90
21353;DHT22;10834;52.268;6.770;2022-11-27T02:23:05;5.20;99.90
21353;DHT22;10834;52.268;6.770;2022-11-27T02:37:48;5.10;99.90
21353;DHT22;10834;52.268;6.770;2022-11-27T02:43:35;5.00;99.90
21353;DHT22;10834;52.268;6.770;2022-11-27T02:46:22;5.00;99.90
21353;DHT22;10834;52.268;6.770;2022-11-27T02:49:11;5.00;99.90
21353;DHT22;10834;52.268;6.770;2022-11-27T02:52:00;5.10;99.90
21353;DHT22;10834;52.268;6.770;2022-11-27T02:54:49;5.10;99.90
21353;DHT22;10834;52.268;6.770;2022-11-27T02:57:38;5.10;99.90
21353;DHT22;10834;52.268;6.770;2022-11-27T03:00:25;5.10;99.90
21353;DHT22;10834;52.268;6.770;2022-11-27T03:03:13;5.10;99.90
21353;DHT22;10834;52.268;6.770;2022-11-27T03:06:06;5.10;99.90
21353;DHT22;10834;52.268;6.770;2022-11-27T03:08:57;5.10;99.90
21353;DHT22;10834;52.268;6.770;2022-11-27T03:11:45;5.10;99.90
21353;DHT22;10834;52.268;6.770;2022-11-27T03:14:33;5.10;99.90
21353;DHT22;10834;52.268;6.770;2022-11-27T03:20:37;5.10;99.90
21353;DHT22;10834;52.268;6.770;2022-11-27T03:23:23;5.10;99.90
21353;DHT22;10834;52.268;6.770;2022-11-27T03:26:09;5.00;99.90
21353;DHT22;10834;52.268;6.770;2022-11-27T03:28:57;5.00;99.90
21353;DHT22;10834;52.268;6.770;2022-11-27T03:31:44;5.10;99.90
21353;DHT22;10834;52.268;6.770;2022-11-27T03:34:31;5.10;99.90
21353;DHT22;10834;52.268;6.770;2022-11-27T03:37:17;5.00;99.90
21353;DHT22;10834;52.268;6.770;2022-11-27T03:40:04;5.10;99.90
21353;DHT22;10834;52.268;6.770;2022-11-27T03:43:21;5.00;99.90
21353;DHT22;10834;52.268;6.770;2022-11-27T03:46:13;5.10;99.90
21353;DHT22;10834;52.268;6.770;2022-11-27T03:49:09;5.00;99.90
21353;DHT22;10834;52.268;6.770;2022-11-27T03:52:07;5.00;99.90
21353;DHT22;10834;52.268;6.770;2022-11-27T03:55:12;5.10;99.90
21353;DHT22;10834;52.268;6.770;2022-11-27T03:58:10;5.10;99.90
21353;DHT22;10834;52.268;6.770;2022-11-27T04:00:58;5.10;99.90
21353;DHT22;10834;52.268;6.770;2022-11-27T04:03:45;5.20;99.90
21353;DHT22;10834;52.268;6.770;2022-11-27T04:06:31;5.10;99.90
21353;DHT22;10834;52.268;6.770;2022-11-27T04:09:17;5.20;99.90
21353;DHT22;10834;52.268;6.770;2022-11-27T04:12:03;5.20;99.90
21353;DHT22;10834;52.268;6.770;2022-11-27T04:14:49;5.20;99.90
21353;DHT22;10834;52.268;6.770;2022-11-27T04:17:35;5.10;99.90
21353;DHT22;10834;52.268;6.770;2022-11-27T04:20:21;5.10;99.90
21353;DHT22;10834;52.268;6.770;2022-11-27T04:23:07;5.20;99.90
21353;DHT22;10834;52.268;6.770;2022-11-27T04:25:54;5.10;99.90
21353;DHT22;10834;52.268;6.770;2022-11-27T04:28:40;5.20;99.90
21353;DHT22;10834;52.268;6.770;2022-11-27T04:31:26;5.20;99.90
21353;DHT22;10834;52.268;6.770;2022-11-27T04:34:12;5.20;99.90
21353;DHT22;10834;52.268;6.770;2022-11-27T04:36:59;5.20;99.90
21353;DHT22;10834;52.268;6.770;2022-11-27T04:39:45;5.30;99.90
21353;DHT22;10834;52.268;6.770;2022-11-27T04:42:31;5.30;99.90
21353;DHT22;10834;52.268;6.770;2022-11-27T04:45:17;5.20;99.90
21353;DHT22;10834;52.268;6.770;2022-11-27T04:48:03;5.20;99.90
21353;DHT22;10834;52.268;6.770;2022-11-27T04:50:50;5.20;99.90
21353;DHT22;10834;52.268;6.770;2022-11-27T04:53:36;5.10;99.90
21353;DHT22;10834;52.268;6.770;2022-11-27T04:56:22;5.10;99.90
21353;DHT22;10834;52.268;6.770;2022-11-27T04:59:08;5.00;99.90
21353;DHT22;10834;52.268;6.770;2022-11-27T05:01:54;5.00;99.90
21353;DHT22;10834;52.268;6.770;2022-11-27T05:04:40;4.90;99.90
21353;DHT22;10834;52.268;6.770;2022-11-27T05:07:26;4.90;99.90
21353;DHT22;10834;52.268;6.770;2022-11-27T05:10:12;4.80;99.90
21353;DHT22;10834;52.268;6.770;2022-11-27T05:12:58;4.70;99.90
21353;DHT22;10834;52.268;6.770;2022-11-27T05:15:44;4.80;99.90
21353;DHT22;10834;52.268;6.770;2022-11-27T05:18:31;4.80;99.90
21353;DHT22;10834;52.268;6.770;2022-11-27T05:21:17;4.80;99.90
21353;DHT22;10834;52.268;6.770;2022-11-27T05:24:03;4.80;99.90
21353;DHT22;10834;52.268;6.770;2022-11-27T05:26:49;4.90;99.90
21353;DHT22;10834;52.268;6.770;2022-11-27T05:29:35;4.90;99.90
21353;DHT22;10834;52.268;6.770;2022-11-27T05:32:22;4.90;99.90
21353;DHT22;10834;52.268;6.770;2022-11-27T05:35:08;4.90;99.90
21353;DHT22;10834;52.268;6.770;2022-11-27T05:37:54;4.90;99.90
21353;DHT22;10834;52.268;6.770;2022-11-27T05:40:40;4.90;99.90
21353;DHT22;10834;52.268;6.770;2022-11-27T05:43:26;4.90;99.90
21353;DHT22;10834;52.268;6.770;2022-11-27T05:46:14;5.00;99.90
21353;DHT22;10834;52.268;6.770;2022-11-27T05:49:00;5.00;99.90
21353;DHT22;10834;52.268;6.770;2022-11-27T05:51:46;5.10;99.90
21353;DHT22;10834;52.268;6.770;2022-11-27T05:54:32;5.10;99.90
21353;DHT22;10834;52.268;6.770;2022-11-27T05:57:18;5.10;99.90
21353;DHT22;10834;52.268;6.770;2022-11-27T06:00:05;5.10;99.90
21353;DHT22;10834;52.268;6.770;2022-11-27T06:02:52;5.20;99.90
21353;DHT22;10834;52.268;6.770;2022-11-27T06:05:38;5.20;99.90
21353;DHT22;10834;52.268;6.770;2022-11-27T06:08:25;5.20;99.90
21353;DHT22;10834;52.268;6.770;2022-11-27T06:11:17;5.30;99.90
21353;DHT22;10834;52.268;6.770;2022-11-27T06:14:09;5.30;99.90
21353;DHT22;10834;52.268;6.770;2022-11-27T06:16:55;5.30;99.90
21353;DHT22;10834;52.268;6.770;2022-11-27T06:19:41;5.40;99.90
21353;DHT22;10834;52.268;6.770;2022-11-27T06:22:29;5.40;99.90
21353;DHT22;10834;52.268;6.770;2022-11-27T06:25:15;5.40;99.90
21353;DHT22;10834;52.268;6.770;2022-11-27T06:28:02;5.40;99.90
21353;DHT22;10834;52.268;6.770;2022-11-27T06:30:48;5.50;99.90
21353;DHT22;10834;52.268;6.770;2022-11-27T06:33:34;5.50;99.90
21353;DHT22;10834;52.268;6.770;2022-11-27T06:36:22;5.50;99.90
21353;DHT22;10834;52.268;6.770;2022-11-27T06:39:10;5.50;99.90
21353;DHT22;10834;52.268;6.770;2022-11-27T06:41:56;5.60;99.90
21353;DHT22;10834;52.268;6.770;2022-11-27T06:44:42;5.60;99.90
21353;DHT22;10834;52.268;6.770;2022-11-27T06:47:28;5.60;99.90
21353;DHT22;10834;52.268;6.770;2022-11-27T06:50:15;5.60;99.90
21353;DHT22;10834;52.268;6.770;2022-11-27T06:53:01;5.60;99.90
21353;DHT22;10834;52.268;6.770;2022-11-27T06:55:47;5.60;99.90
21353;DHT22;10834;52.268;6.770;2022-11-27T06:58:34;5.60;99.90
21353;DHT22;10834;52.268;6.770;2022-11-27T07:01:21;5.70;99.90
21353;DHT22;10834;52.268;6.770;2022-11-27T07:04:10;5.70;99.90
21353;DHT22;10834;52.268;6.770;2022-11-27T07:06:56;5.70;99.90
21353;DHT22;10834;52.268;6.770;2022-11-27T07:09:43;5.70;99.90
21353;DHT22;10834;52.268;6.770;2022-11-27T07:12:29;5.80;99.90
21353;DHT22;10834;52.268;6.770;2022-11-27T07:15:15;5.80;99.90
21353;DHT22;10834;52.268;6.770;2022-11-27T07:18:02;5.80;99.90
21353;DHT22;10834;52.268;6.770;2022-11-27T07:20:51;5.90;99.90
21353;DHT22;10834;52.268;6.770;2022-11-27T07:23:38;5.90;99.90
21353;DHT22;10834;52.268;6.770;2022-11-27T07:26:25;5.90;99.90
21353;DHT22;10834;52.268;6.770;2022-11-27T07:29:12;6.00;99.90
21353;DHT22;10834;52.268;6.770;2022-11-27T07:31:57;6.00;99.90
21353;DHT22;10834;52.268;6.770;2022-11-27T07:34:43;6.00;99.90
21353;DHT22;10834;52.268;6.770;2022-11-27T07:37:30;6.00;99.90
21353;DHT22;10834;52.268;6.770;2022-11-27T07:40:17;6.10;99.90
21353;DHT22;10834;52.268;6.770;2022-11-27T07:43:03;6.10;99.90
21353;DHT22;10834;52.268;6.770;2022-11-27T07:45:49;6.10;99.90
21353;DHT22;10834;52.268;6.770;2022-11-27T07:48:35;6.20;99.90
21353;DHT22;10834;52.268;6.770;2022-11-27T07:51:22;6.30;99.90
21353;DHT22;10834;52.268;6.770;2022-11-27T07:54:08;6.30;99.90
21353;DHT22;10834;52.268;6.770;2022-11-27T07:56:55;6.30;99.90
21353;DHT22;10834;52.268;6.770;2022-11-27T07:59:41;6.40;99.90
21353;DHT22;10834;52.268;6.770;2022-11-27T08:02:26;6.50;99.90
21353;DHT22;10834;52.268;6.770;2022-11-27T08:05:12;6.60;99.90
21353;DHT22;10834;52.268;6.770;2022-11-27T08:07:59;6.60;99.90
21353;DHT22;10834;52.268;6.770;2022-11-27T08:10:45;6.70;99.90
21353;DHT22;10834;52.268;6.770;2022-11-27T08:13:31;6.70;99.90
21353;DHT22;10834;52.268;6.770;2022-11-27T08:16:17;6.80;99.90
21353;DHT22;10834;52.268;6.770;2022-11-27T08:19:03;6.80;99.90
21353;DHT22;10834;52.268;6.770;2022-11-27T08:21:49;6.80;99.90
21353;DHT22;10834;52.268;6.770;2022-11-27T08:24:35;6.90;99.90
21353;DHT22;10834;52.268;6.770;2022-11-27T08:27:23;6.90;99.90
21353;DHT22;10834;52.268;6.770;2022-11-27T08:30:09;7.00;99.90
21353;DHT22;10834;52.268;6.770;2022-11-27T08:32:55;7.00;99.90
21353;DHT22;10834;52.268;6.770;2022-11-27T08:35:47;7.00;99.90
21353;DHT22;10834;52.268;6.770;2022-11-27T08:38:33;7.00;99.90
21353;DHT22;10834;52.268;6.770;2022-11-27T08:41:19;7.00;99.90
21353;DHT22;10834;52.268;6.770;2022-11-27T08:44:05;7.00;99.90
21353;DHT22;10834;52.268;6.770;2022-11-27T08:46:51;7.00;99.90
21353;DHT22;10834;52.268;6.770;2022-11-27T08:49:37;7.00;99.90
21353;DHT22;10834;52.268;6.770;2022-11-27T08:52:23;7.00;99.90
21353;DHT22;10834;52.268;6.770;2022-11-27T08:55:09;7.00;99.90
21353;DHT22;10834;52.268;6.770;2022-11-27T08:57:55;7.00;99.90
21353;DHT22;10834;52.268;6.770;2022-11-27T09:00:41;7.00;99.90
21353;DHT22;10834;52.268;6.770;2022-11-27T09:03:27;7.00;99.90
21353;DHT22;10834;52.268;6.770;2022-11-27T09:06:18;7.00;99.90
21353;DHT22;10834;52.268;6.770;2022-11-27T09:09:06;7.00;99.90
21353;DHT22;10834;52.268;6.770;2022-11-27T09:11:53;7.10;99.90
21353;DHT22;10834;52.268;6.770;2022-11-27T09:14:39;7.10;99.90
21353;DHT22;10834;52.268;6.770;2022-11-27T09:17:25;7.10;99.90
21353;DHT22;10834;52.268;6.770;2022-11-27T09:20:11;7.10;99.90
21353;DHT22;10834;52.268;6.770;2022-11-27T09:22:59;7.10;99.90
21353;DHT22;10834;52.268;6.770;2022-11-27T09:25:47;7.10;99.90
21353;DHT22;10834;52.268;6.770;2022-11-27T09:28:35;7.10;99.90
21353;DHT22;10834;52.268;6.770;2022-11-27T09:31:22;7.20;99.90
21353;DHT22;10834;52.268;6.770;2022-11-27T09:34:07;7.20;99.90
21353;DHT22;10834;52.268;6.770;2022-11-27T09:36:53;7.20;99.90
21353;DHT22;10834;52.268;6.770;2022-11-27T09:39:39;7.20;99.90
21353;DHT22;10834;52.268;6.770;2022-11-27T09:42:52;7.20;99.90
21353;DHT22;10834;52.268;6.770;2022-11-27T09:45:48;7.20;99.90
21353;DHT22;10834;52.268;6.770;2022-11-27T09:48:39;7.20;99.90
21353;DHT22;10834;52.268;6.770;2022-11-27T09:51:34;7.30;99.90
21353;DHT22;10834;52.268;6.770;2022-11-27T09:57:30;7.30;99.90
21353;DHT22;10834;52.268;6.770;2022-11-27T10:00:18;7.40;99.90
21353;DHT22;10834;52.268;6.770;2022-11-27T10:03:13;7.30;99.90
21353;DHT22;10834;52.268;6.770;2022-11-27T10:15:37;7.30;99.90
21353;DHT22;10834;52.268;6.770;2022-11-27T10:21:40;7.30;99.90
21353;DHT22;10834;52.268;6.770;2022-11-27T10:30:30;7.30;99.90
21353;DHT22;10834;52.268;6.770;2022-11-27T10:33:21;7.30;99.90
21353;DHT22;10834;52.268;6.770;2022-11-27T10:36:14;7.30;99.90
21353;DHT22;10834;52.268;6.770;2022-11-27T10:39:03;7.30;99.90
21353;DHT22;10834;52.268;6.770;2022-11-27T10:41:58;7.30;99.90
21353;DHT22;10834;52.268;6.770;2022-11-27T10:48:05;7.30;99.90
21353;DHT22;10834;52.268;6.770;2022-11-27T10:50:51;7.30;99.90
21353;DHT22;10834;52.268;6.770;2022-11-27T10:53:39;7.30;99.90
21353;DHT22;10834;52.268;6.770;2022-11-27T11:03:03;7.30;99.90
21353;DHT22;10834;52.268;6.770;2022-11-27T11:06:01;7.20;99.90
21353;DHT22;10834;52.268;6.770;2022-11-27T11:09:04;7.20;99.90
21353;DHT22;10834;52.268;6.770;2022-11-27T11:11:51;7.30;99.90
21353;DHT22;10834;52.268;6.770;2022-11-27T11:14:37;7.30;99.90
21353;DHT22;10834;52.268;6.770;2022-11-27T11:17:29;7.30;99.90
21353;DHT22;10834;52.268;6.770;2022-11-27T11:20:22;7.30;99.90
21353;DHT22;10834;52.268;6.770;2022-11-27T11:23:28;7.30;99.90
21353;DHT22;10834;52.268;6.770;2022-11-27T11:26:26;7.30;99.90
21353;DHT22;10834;52.268;6.770;2022-11-27T11:38:31;7.20;99.90
21353;DHT22;10834;52.268;6.770;2022-11-27T11:41:18;7.20;99.90
21353;DHT22;10834;52.268;6.770;2022-11-27T11:44:04;7.20;99.90
21353;DHT22;10834;52.268;6.770;2022-11-27T11:46:52;7.30;99.90
21353;DHT22;10834;52.268;6.770;2022-11-27T11:49:38;7.30;99.90
21353;DHT22;10834;52.268;6.770;2022-11-27T11:52:45;7.30;99.90
21353;DHT22;10834;52.268;6.770;2022-11-27T11:55:58;7.30;99.90
21353;DHT22;10834;52.268;6.770;2022-11-27T12:08:09;7.40;99.90
21353;DHT22;10834;52.268;6.770;2022-11-27T12:20:02;7.40;99.90
21353;DHT22;10834;52.268;6.770;2022-11-27T12:23:24;7.40;99.90
21353;DHT22;10834;52.268;6.770;2022-11-27T12:26:53;7.40;99.90
21353;DHT22;10834;52.268;6.770;2022-11-27T12:30:07;7.50;99.90
21353;DHT22;10834;52.268;6.770;2022-11-27T12:36:22;7.50;99.90
21353;DHT22;10834;52.268;6.770;2022-11-27T12:39:23;7.50;99.90
21353;DHT22;10834;52.268;6.770;2022-11-27T12:42:26;7.50;99.90
21353;DHT22;10834;52.268;6.770;2022-11-27T12:45:22;7.60;99.90
21353;DHT22;10834;52.268;6.770;2022-11-27T12:48:17;7.60;99.90
21353;DHT22;10834;52.268;6.770;2022-11-27T12:51:11;7.60;99.90
21353;DHT22;10834;52.268;6.770;2022-11-27T12:56:55;7.70;99.90
21353;DHT22;10834;52.268;6.770;2022-11-27T12:59:49;7.70;99.90
21353;DHT22;10834;52.268;6.770;2022-11-27T13:05:57;7.80;99.90
21353;DHT22;10834;52.268;6.770;2022-11-27T13:11:37;7.70;99.90
21353;DHT22;10834;52.268;6.770;2022-11-27T13:14:25;7.70;99.90
21353;DHT22;10834;52.268;6.770;2022-11-27T13:17:13;7.80;99.90
21353;DHT22;10834;52.268;6.770;2022-11-27T13:20:02;7.70;99.90
21353;DHT22;10834;52.268;6.770;2022-11-27T13:22:49;7.70;99.90
21353;DHT22;10834;52.268;6.770;2022-11-27T13:25:42;7.70;99.90
21353;DHT22;10834;52.268;6.770;2022-11-27T13:28:43;7.70;99.90
21353;DHT22;10834;52.268;6.770;2022-11-27T13:31:34;7.60;99.90
21353;DHT22;10834;52.268;6.770;2022-11-27T13:34:24;7.60;99.90
21353;DHT22;10834;52.268;6.770;2022-11-27T13:37:26;7.60;99.90
21353;DHT22;10834;52.268;6.770;2022-11-27T13:40:22;7.60;99.90
21353;DHT22;10834;52.268;6.770;2022-11-27T13:43:41;7.60;99.90
21353;DHT22;10834;52.268;6.770;2022-11-27T13:46:29;7.60;99.90
21353;DHT22;10834;52.268;6.770;2022-11-27T13:49:27;7.60;99.90
21353;DHT22;10834;52.268;6.770;2022-11-27T13:52:20;7.60;99.90
21353;DHT22;10834;52.268;6.770;2022-11-27T13:55:07;7.60;99.90
21353;DHT22;10834;52.268;6.770;2022-11-27T13:57:56;7.70;99.90
21353;DHT22;10834;52.268;6.770;2022-11-27T14:00:44;7.70;99.90
21353;DHT22;10834;52.268;6.770;2022-11-27T14:03:30;7.70;99.90
21353;DHT22;10834;52.268;6.770;2022-11-27T14:06:27;7.70;99.90
21353;DHT22;10834;52.268;6.770;2022-11-27T14:09:14;7.70;99.90
21353;DHT22;10834;52.268;6.770;2022-11-27T14:12:01;7.70;99.90
21353;DHT22;10834;52.268;6.770;2022-11-27T14:17:52;7.60;99.90
21353;DHT22;10834;52.268;6.770;2022-11-27T14:20:53;7.60;99.90
21353;DHT22;10834;52.268;6.770;2022-11-27T14:23:50;7.60;99.90
21353;DHT22;10834;52.268;6.770;2022-11-27T14:26:40;7.60;99.90
21353;DHT22;10834;52.268;6.770;2022-11-27T14:29:29;7.50;99.90
21353;DHT22;10834;52.268;6.770;2022-11-27T14:32:17;7.50;99.90
21353;DHT22;10834;52.268;6.770;2022-11-27T14:35:04;7.50;99.90
21353;DHT22;10834;52.268;6.770;2022-11-27T14:38:12;7.50;99.90
21353;DHT22;10834;52.268;6.770;2022-11-27T14:41:17;7.50;99.90
21353;DHT22;10834;52.268;6.770;2022-11-27T14:44:05;7.50;99.90
21353;DHT22;10834;52.268;6.770;2022-11-27T14:46:52;7.50;99.90
21353;DHT22;10834;52.268;6.770;2022-11-27T14:49:38;7.40;99.90
21353;DHT22;10834;52.268;6.770;2022-11-27T14:52:26;7.40;99.90
21353;DHT22;10834;52.268;6.770;2022-11-27T14:55:16;7.40;99.90
21353;DHT22;10834;52.268;6.770;2022-11-27T14:58:03;7.40;99.90
21353;DHT22;10834;52.268;6.770;2022-11-27T15:01:05;7.40;99.90
21353;DHT22;10834;52.268;6.770;2022-11-27T15:07:35;7.40;99.90
21353;DHT22;10834;52.268;6.770;2022-11-27T15:10:42;7.40;99.90
21353;DHT22;10834;52.268;6.770;2022-11-27T15:13:30;7.30;99.90
21353;DHT22;10834;52.268;6.770;2022-11-27T15:16:21;7.30;99.90
21353;DHT22;10834;52.268;6.770;2022-11-27T15:19:15;7.40;99.90
21353;DHT22;10834;52.268;6.770;2022-11-27T15:22:02;7.30;99.90
21353;DHT22;10834;52.268;6.770;2022-11-27T15:25:06;7.30;99.90
21353;DHT22;10834;52.268;6.770;2022-11-27T15:27:52;7.30;99.90
21353;DHT22;10834;52.268;6.770;2022-11-27T15:30:44;7.30;99.90
21353;DHT22;10834;52.268;6.770;2022-11-27T15:33:32;7.20;99.90
21353;DHT22;10834;52.268;6.770;2022-11-27T15:36:19;7.30;99.90
21353;DHT22;10834;52.268;6.770;2022-11-27T15:39:30;7.20;99.90
21353;DHT22;10834;52.268;6.770;2022-11-27T15:42:20;7.30;99.90
21353;DHT22;10834;52.268;6.770;2022-11-27T15:45:08;7.30;99.90
21353;DHT22;10834;52.268;6.770;2022-11-27T15:47:59;7.20;99.90
21353;DHT22;10834;52.268;6.770;2022-11-27T15:50:45;7.20;99.90
21353;DHT22;10834;52.268;6.770;2022-11-27T15:53:31;7.20;99.90
21353;DHT22;10834;52.268;6.770;2022-11-27T15:56:17;7.20;99.90
21353;DHT22;10834;52.268;6.770;2022-11-27T15:59:04;7.20;99.90
21353;DHT22;10834;52.268;6.770;2022-11-27T16:01:49;7.20;99.90
21353;DHT22;10834;52.268;6.770;2022-11-27T16:04:36;7.20;99.90
21353;DHT22;10834;52.268;6.770;2022-11-27T16:07:22;7.30;99.90
21353;DHT22;10834;52.268;6.770;2022-11-27T16:10:08;7.20;99.90
21353;DHT22;10834;52.268;6.770;2022-11-27T16:12:54;7.30;99.90
21353;DHT22;10834;52.268;6.770;2022-11-27T16:15:42;7.20;99.90
21353;DHT22;10834;52.268;6.770;2022-11-27T16:18:29;7.20;99.90
21353;DHT22;10834;52.268;6.770;2022-11-27T16:21:16;7.20;99.90
21353;DHT22;10834;52.268;6.770;2022-11-27T16:24:04;7.20;99.90
21353;DHT22;10834;52.268;6.770;2022-11-27T16:26:50;7.20;99.90
21353;DHT22;10834;52.268;6.770;2022-11-27T16:29:36;7.20;99.90
21353;DHT22;10834;52.268;6.770;2022-11-27T16:32:22;7.30;99.90
21353;DHT22;10834;52.268;6.770;2022-11-27T16:35:08;7.20;99.90
21353;DHT22;10834;52.268;6.770;2022-11-27T16:37:54;7.20;99.90
21353;DHT22;10834;52.268;6.770;2022-11-27T16:40:40;7.30;99.90
21353;DHT22;10834;52.268;6.770;2022-11-27T16:43:26;7.20;99.90
21353;DHT22;10834;52.268;6.770;2022-11-27T16:46:19;7.20;99.90
21353;DHT22;10834;52.268;6.770;2022-11-27T16:49:06;7.20;99.90
21353;DHT22;10834;52.268;6.770;2022-11-27T16:51:52;7.20;99.90
21353;DHT22;10834;52.268;6.770;2022-11-27T16:54:38;7.20;99.90
21353;DHT22;10834;52.268;6.770;2022-11-27T16:57:24;7.20;99.90
21353;DHT22;10834;52.268;6.770;2022-11-27T17:00:10;7.20;99.90
21353;DHT22;10834;52.268;6.770;2022-11-27T17:02:56;7.20;99.90
21353;DHT22;10834;52.268;6.770;2022-11-27T17:05:42;7.20;99.90
21353;DHT22;10834;52.268;6.770;2022-11-27T17:08:28;7.20;99.90
21353;DHT22;10834;52.268;6.770;2022-11-27T17:11:17;7.20;99.90
21353;DHT22;10834;52.268;6.770;2022-11-27T17:14:06;7.20;99.90
21353;DHT22;10834;52.268;6.770;2022-11-27T17:16:52;7.20;99.90
21353;DHT22;10834;52.268;6.770;2022-11-27T17:19:38;7.20;99.90
21353;DHT22;10834;52.268;6.770;2022-11-27T17:22:24;7.20;99.90
21353;DHT22;10834;52.268;6.770;2022-11-27T17:25:11;7.20;99.90
21353;DHT22;10834;52.268;6.770;2022-11-27T17:27:57;7.20;99.90
21353;DHT22;10834;52.268;6.770;2022-11-27T17:30:43;7.20;99.90
21353;DHT22;10834;52.268;6.770;2022-11-27T17:33:29;7.20;99.90
21353;DHT22;10834;52.268;6.770;2022-11-27T17:36:15;7.20;99.90
21353;DHT22;10834;52.268;6.770;2022-11-27T17:39:02;7.20;99.90
21353;DHT22;10834;52.268;6.770;2022-11-27T17:41:49;7.20;99.90
21353;DHT22;10834;52.268;6.770;2022-11-27T17:44:35;7.30;99.90
21353;DHT22;10834;52.268;6.770;2022-11-27T17:47:21;7.30;99.90
21353;DHT22;10834;52.268;6.770;2022-11-27T17:50:07;7.30;99.90
21353;DHT22;10834;52.268;6.770;2022-11-27T17:52:53;7.30;99.90
21353;DHT22;10834;52.268;6.770;2022-11-27T17:55:39;7.30;99.90
21353;DHT22;10834;52.268;6.770;2022-11-27T17:58:25;7.30;99.90
21353;DHT22;10834;52.268;6.770;2022-11-27T18:01:20;7.30;99.90
21353;DHT22;10834;52.268;6.770;2022-11-27T18:04:07;7.30;99.90
21353;DHT22;10834;52.268;6.770;2022-11-27T18:06:55;7.40;99.90
21353;DHT22;10834;52.268;6.770;2022-11-27T18:09:41;7.40;99.90
21353;DHT22;10834;52.268;6.770;2022-11-27T18:12:27;7.40;99.90
21353;DHT22;10834;52.268;6.770;2022-11-27T18:15:13;7.40;99.90
21353;DHT22;10834;52.268;6.770;2022-11-27T18:17:59;7.40;99.90
21353;DHT22;10834;52.268;6.770;2022-11-27T18:20:45;7.40;99.90
21353;DHT22;10834;52.268;6.770;2022-11-27T18:23:31;7.30;99.90
21353;DHT22;10834;52.268;6.770;2022-11-27T18:26:19;7.30;99.90
21353;DHT22;10834;52.268;6.770;2022-11-27T18:29:05;7.40;99.90
21353;DHT22;10834;52.268;6.770;2022-11-27T18:31:51;7.40;99.90
21353;DHT22;10834;52.268;6.770;2022-11-27T18:34:38;7.40;99.90
21353;DHT22;10834;52.268;6.770;2022-11-27T18:37:24;7.40;99.90
21353;DHT22;10834;52.268;6.770;2022-11-27T18:40:11;7.40;99.90
21353;DHT22;10834;52.268;6.770;2022-11-27T18:42:57;7.40;99.90
21353;DHT22;10834;52.268;6.770;2022-11-27T18:45:43;7.40;99.90
21353;DHT22;10834;52.268;6.770;2022-11-27T18:48:29;7.40;99.90
21353;DHT22;10834;52.268;6.770;2022-11-27T18:51:24;7.40;99.90
21353;DHT22;10834;52.268;6.770;2022-11-27T18:54:11;7.30;99.90
21353;DHT22;10834;52.268;6.770;2022-11-27T18:56:57;7.30;99.90
21353;DHT22;10834;52.268;6.770;2022-11-27T18:59:43;7.30;99.90
21353;DHT22;10834;52.268;6.770;2022-11-27T19:02:29;7.30;99.90
21353;DHT22;10834;52.268;6.770;2022-11-27T19:05:15;7.30;99.90
21353;DHT22;10834;52.268;6.770;2022-11-27T19:08:01;7.30;99.90
21353;DHT22;10834;52.268;6.770;2022-11-27T19:10:49;7.30;99.90
21353;DHT22;10834;52.268;6.770;2022-11-27T19:13:35;7.30;99.90
21353;DHT22;10834;52.268;6.770;2022-11-27T19:16:25;7.30;99.90
21353;DHT22;10834;52.268;6.770;2022-11-27T19:19:14;7.30;99.90
21353;DHT22;10834;52.268;6.770;2022-11-27T19:22:03;7.30;99.90
21353;DHT22;10834;52.268;6.770;2022-11-27T19:24:49;7.30;99.90
21353;DHT22;10834;52.268;6.770;2022-11-27T19:27:35;7.30;99.90
21353;DHT22;10834;52.268;6.770;2022-11-27T19:30:21;7.30;99.90
21353;DHT22;10834;52.268;6.770;2022-11-27T19:33:08;7.30;99.90
21353;DHT22;10834;52.268;6.770;2022-11-27T19:36:05;7.30;99.90
21353;DHT22;10834;52.268;6.770;2022-11-27T19:38:58;7.20;99.90
21353;DHT22;10834;52.268;6.770;2022-11-27T19:41:44;7.20;99.90
21353;DHT22;10834;52.268;6.770;2022-11-27T19:44:30;7.20;99.90
21353;DHT22;10834;52.268;6.770;2022-11-27T19:47:16;7.20;99.90
21353;DHT22;10834;52.268;6.770;2022-11-27T19:50:03;7.20;99.90